Sea Poseidon — V7UI7 — position and weather

sailwx.info

Track history (hours):
 
Tides and Currents Weather Stations Pressure Air Temp Water Temp Dewpoint Dewpoint Depression Visibility Wind Speed Wind Dir Waves Ship Positions

Sea Poseidon

Last reported at 2017-Dec-08 01:48 UTC. Time now 2017-Dec-15 20:03 UTC.
Position S 25°30' E 154°32'.

Length 292 m; draft 11.1 m.

Type: Cargo ship. MMSI: 538003956.

Date/timePositionNaut miles runAvg speedWind from/ knotsBaromVisibWave heightAir tempDewpointWater temp
2017-Dec-08 01:48S 25°30' E 154°32'310.6
2017-Dec-08 01:30S 25°33' E 154°32'2411.1
2017-Dec-07 23:19S 25°57' E 154°35'411.8
2017-Dec-07 23:00S 26°01' E 154°35'612.0
2017-Dec-07 22:30S 26°07' E 154°36'612.1
2017-Dec-07 21:59S 26°13' E 154°36'712.5
2017-Dec-07 21:28S 26°20' E 154°37'612.1
2017-Dec-07 21:00S 26°25' E 154°38'611.6
2017-Dec-07 20:27S 26°32' E 154°39'511.6
2017-Dec-07 20:00S 26°37' E 154°39'611.8
2017-Dec-07 19:30S 26°43' E 154°40'611.9
2017-Dec-07 19:00S 26°48' E 154°41'612.1
2017-Dec-07 18:30S 26°54' E 154°42'612.4
2017-Dec-07 18:00S 27°01' E 154°43'612.5
2017-Dec-07 17:30S 27°07' E 154°43'1412.0
2017-Dec-07 16:20S 27°21' E 154°45'411.6
2017-Dec-07 16:00S 27°25' E 154°45'611.6
2017-Dec-07 15:30S 27°30' E 154°45'611.4
2017-Dec-07 15:00S 27°36' E 154°45'611.0
2017-Dec-07 14:30S 27°42' E 154°45'511.1
2017-Dec-07 14:00S 27°47' E 154°45'611.3
2017-Dec-07 13:30S 27°53' E 154°45'611.2
2017-Dec-07 13:00S 27°58' E 154°45'611.1
2017-Dec-07 12:30S 28°04' E 154°45'611.2
2017-Dec-07 12:00S 28°10' E 154°45'611.2
2017-Dec-07 11:30S 28°15' E 154°45'611.0
2017-Dec-07 11:00S 28°21' E 154°46'510.7
2017-Dec-07 10:30S 28°26' E 154°46'510.4
2017-Dec-07 10:00S 28°31' E 154°46'510.3
2017-Dec-07 09:30S 28°36' E 154°46'611.0
2017-Dec-07 09:00S 28°42' E 154°45'612.0
2017-Dec-07 08:30S 28°48' E 154°45'612.6
2017-Dec-07 08:00S 28°54' E 154°45'713.1
2017-Dec-07 07:30S 29°01' E 154°45'713.4
2017-Dec-07 07:00S 29°07' E 154°45'713.4
2017-Dec-07 06:30S 29°14' E 154°44'713.5
2017-Dec-07 06:00S 29°21' E 154°43'713.6
2017-Dec-07 05:30S 29°27' E 154°40'713.8
2017-Dec-07 05:00S 29°34' E 154°38'713.9
2017-Dec-07 04:30S 29°41' E 154°38'  
Track history (hours):
 
Tides and Currents Weather Stations Pressure Air Temp Water Temp Dewpoint Dewpoint Depression Visibility Wind Speed Wind Dir Waves Ship Positions

Sea Poseidon

Last reported at 2017-Dec-08 01:48 UTC. Time now 2017-Dec-15 20:03 UTC.
Position S 25°30' E 154°32'.

Length 292 m; draft 11.1 m.

Type: Cargo ship. MMSI: 538003956.

Date/timePositionNaut miles runAvg speedWind from/ knotsBaromVisibWave heightAir tempDewpointWater temp
2017-Dec-08 01:48S 25°30' E 154°32'310.6
2017-Dec-08 01:30S 25°33' E 154°32'2411.1
2017-Dec-07 23:19S 25°57' E 154°35'411.8
2017-Dec-07 23:00S 26°01' E 154°35'612.0
2017-Dec-07 22:30S 26°07' E 154°36'612.1
2017-Dec-07 21:59S 26°13' E 154°36'712.5
2017-Dec-07 21:28S 26°20' E 154°37'612.1
2017-Dec-07 21:00S 26°25' E 154°38'611.6
2017-Dec-07 20:27S 26°32' E 154°39'511.6
2017-Dec-07 20:00S 26°37' E 154°39'611.8
2017-Dec-07 19:30S 26°43' E 154°40'611.9
2017-Dec-07 19:00S 26°48' E 154°41'612.1
2017-Dec-07 18:30S 26°54' E 154°42'612.4
2017-Dec-07 18:00S 27°01' E 154°43'612.5
2017-Dec-07 17:30S 27°07' E 154°43'1412.0
2017-Dec-07 16:20S 27°21' E 154°45'411.6
2017-Dec-07 16:00S 27°25' E 154°45'611.6
2017-Dec-07 15:30S 27°30' E 154°45'611.4
2017-Dec-07 15:00S 27°36' E 154°45'611.0
2017-Dec-07 14:30S 27°42' E 154°45'511.1
2017-Dec-07 14:00S 27°47' E 154°45'611.3
2017-Dec-07 13:30S 27°53' E 154°45'611.2
2017-Dec-07 13:00S 27°58' E 154°45'611.1
2017-Dec-07 12:30S 28°04' E 154°45'611.2
2017-Dec-07 12:00S 28°10' E 154°45'611.2
2017-Dec-07 11:30S 28°15' E 154°45'611.0
2017-Dec-07 11:00S 28°21' E 154°46'510.7
2017-Dec-07 10:30S 28°26' E 154°46'510.4
2017-Dec-07 10:00S 28°31' E 154°46'510.3
2017-Dec-07 09:30S 28°36' E 154°46'611.0
2017-Dec-07 09:00S 28°42' E 154°45'612.0
2017-Dec-07 08:30S 28°48' E 154°45'612.6
2017-Dec-07 08:00S 28°54' E 154°45'713.1
2017-Dec-07 07:30S 29°01' E 154°45'713.4
2017-Dec-07 07:00S 29°07' E 154°45'713.4
2017-Dec-07 06:30S 29°14' E 154°44'713.5
2017-Dec-07 06:00S 29°21' E 154°43'713.6
2017-Dec-07 05:30S 29°27' E 154°40'713.8
2017-Dec-07 05:00S 29°34' E 154°38'713.9
2017-Dec-07 04:30S 29°41' E 154°38'  

Dump ship's entire track history